ADDS METAR Data INFO
IDs: Format: Raw Decoded Include TAF

Data at: 2308 UTC 21 Feb 2018

KESN 212250Z 21007G15KT 10SM SKC 23/16 A3032
KESN 212150Z 21012G18KT 10SM FEW100 25/16 A3031
KESN 212050Z 23013G18KT 10SM FEW050 26/16 A3031
KESN 211950Z 23012G18KT 10SM FEW050 25/16 A3033
KESN 211850Z 23015G22KT 10SM FEW050 24/17 A3034
KESN 211750Z 23019G22KT 10SM SCT100 23/17 A3036
KESN 211650Z 23015G22KT 10SM SCT022 22/17 A3039
KESN 211613Z 23015G23KT 10SM BKN020 21/17 A3040
KESN 211550Z 23013G20KT 10SM SCT014 20/17 A3040
KESN 211450Z 23014G20KT 10SM OVC012 19/16 A3041
KESN 211354Z 23014G20KT 10SM OVC010 18/16 A3040
KESN 211254Z 23012KT 10SM OVC010 18/16 A3040
KESN 210748Z AUTO 20007KT 10SM CLR 17/15 A3039 RMK AO2 T01670152
KESN 210728Z AUTO 21009KT 10SM CLR 17/15 A3039 RMK AO2 T01700153
KESN 210708Z AUTO 21008KT 10SM BKN037 17/15 A3039 RMK AO2 T01720152
KESN 210648Z AUTO 21008KT 10SM OVC035 18/16 A3040 RMK AO2 T01750155
KESN 210628Z AUTO 21008KT 10SM OVC035 18/16 A3040 RMK AO2 T01750155
KESN 210608Z AUTO 21007KT 10SM OVC035 17/16 A3040 RMK AO2 T01730155
KESN 210548Z AUTO 21007KT 10SM BKN035 17/16 A3040 RMK AO2 T01700155
KESN 201453Z 23011KT 10SM OVC006 15/13 A3044
KESN 201353Z 23011KT 10SM BKN006 BKN075 14/13 A3043
KESN 201253Z 23010G18KT 4SM BR OVC002 13/12 A3043
KESN 201153Z 22012G17KT 5SM BR OVC002 13/12 A3041